createdAt,value
2018-09-26T00:01:21.322Z,7.87
2018-09-26T00:03:52.167Z,7.88
2018-09-26T00:06:19.425Z,7.97
2018-09-26T00:08:46.604Z,7.99
2018-09-26T00:11:13.914Z,8.04
2018-09-26T00:13:41.177Z,7.99
2018-09-26T00:16:08.417Z,7.86
2018-09-26T00:18:35.757Z,7.75
2018-09-26T00:21:02.992Z,7.75
2018-09-26T00:23:30.245Z,7.74
2018-09-26T00:25:57.533Z,7.65
2018-09-26T00:28:24.783Z,7.53
2018-09-26T00:30:52.098Z,7.52
2018-09-26T00:33:19.345Z,7.46
2018-09-26T00:35:46.620Z,7.45
2018-09-26T00:38:13.809Z,7.54
2018-09-26T00:40:41.084Z,7.49
2018-09-26T00:43:08.334Z,7.47
2018-09-26T00:45:35.684Z,7.41
2018-09-26T00:48:02.988Z,7.43
2018-09-26T00:50:30.233Z,7.34
2018-09-26T00:52:57.659Z,7.31
2018-09-26T00:55:24.962Z,7.25
2018-09-26T00:57:52.291Z,7.13
2018-09-26T01:02:43.581Z,6.98
2018-09-26T01:05:10.842Z,7.08
2018-09-26T01:07:38.283Z,7.04
2018-09-26T01:10:05.676Z,6.98
2018-09-26T01:12:32.922Z,7.00
2018-09-26T01:15:00.194Z,6.88
2018-09-26T01:17:27.481Z,6.82
2018-09-26T01:19:54.793Z,6.87
2018-09-26T01:22:22.008Z,6.95
2018-09-26T01:24:49.206Z,7.03
2018-09-26T01:27:16.433Z,6.98
2018-09-26T01:29:43.662Z,6.96
2018-09-26T01:32:10.890Z,6.97
2018-09-26T01:34:38.145Z,6.98
2018-09-26T01:37:05.368Z,7.01
2018-09-26T01:39:32.670Z,7.00
2018-09-26T01:41:59.992Z,6.89
2018-09-26T01:44:27.259Z,6.83
2018-09-26T01:46:54.533Z,6.91
2018-09-26T01:49:21.781Z,6.95
2018-09-26T01:51:49.076Z,7.00
2018-09-26T01:54:16.349Z,6.94
2018-09-26T01:56:43.519Z,6.91
2018-09-26T01:59:10.805Z,6.97
2018-09-26T02:01:38.169Z,6.98
2018-09-26T02:04:05.527Z,6.71
2018-09-26T02:06:32.778Z,6.69
2018-09-26T02:08:59.961Z,6.71
2018-09-26T02:11:27.177Z,6.72
2018-09-26T02:13:54.342Z,6.66
2018-09-26T02:16:21.597Z,6.70
2018-09-26T02:18:48.846Z,6.64
2018-09-26T02:21:16.157Z,6.64
2018-09-26T02:23:43.471Z,6.66
2018-09-26T02:26:10.675Z,6.63
2018-09-26T02:28:37.924Z,6.65
2018-09-26T02:31:05.151Z,6.54
2018-09-26T02:33:32.398Z,6.41
2018-09-26T02:36:01.315Z,6.22
2018-09-26T02:38:28.676Z,6.03
2018-09-26T02:40:55.897Z,6.04
2018-09-26T02:43:23.125Z,5.95
2018-09-26T02:45:50.329Z,5.85
2018-09-26T02:49:21.486Z,5.80
2018-09-26T02:51:48.688Z,5.78
2018-09-26T02:54:15.958Z,5.64
2018-09-26T02:56:43.219Z,5.49
2018-09-26T02:59:10.515Z,5.42
2018-09-26T03:01:37.800Z,5.47
2018-09-26T03:04:05.137Z,5.56
2018-09-26T03:06:32.389Z,5.58
2018-09-26T03:08:59.575Z,5.59
2018-09-26T03:11:26.837Z,5.63
2018-09-26T03:13:54.077Z,5.65
2018-09-26T03:16:21.412Z,5.59
2018-09-26T03:18:48.629Z,5.63
2018-09-26T03:21:15.927Z,5.65
2018-09-26T03:23:43.194Z,5.65
2018-09-26T03:26:10.462Z,5.73
2018-09-26T03:28:37.703Z,5.71
2018-09-26T03:31:05.050Z,5.72
2018-09-26T03:33:32.385Z,5.62
2018-09-26T03:36:01.054Z,5.56
2018-09-26T03:38:28.387Z,5.62
2018-09-26T03:40:55.596Z,5.63
2018-09-26T03:43:22.866Z,5.58
2018-09-26T03:45:50.189Z,5.53
2018-09-26T03:48:17.539Z,5.44
2018-09-26T03:50:44.794Z,5.44
2018-09-26T03:53:12.150Z,5.36
2018-09-26T03:55:39.473Z,5.34
2018-09-26T03:58:06.844Z,5.33
2018-09-26T04:00:34.143Z,5.37
2018-09-26T04:03:01.432Z,5.36
2018-09-26T04:05:28.746Z,5.40
2018-09-26T04:07:56.120Z,5.42
2018-09-26T04:10:23.389Z,5.48
2018-09-26T04:12:50.728Z,5.57
2018-09-26T04:15:18.152Z,5.64
2018-09-26T04:17:45.470Z,5.72
2018-09-26T04:20:12.811Z,5.83
2018-09-26T04:22:39.997Z,5.79
2018-09-26T04:25:07.204Z,5.82
2018-09-26T04:27:34.508Z,5.79
2018-09-26T04:30:01.847Z,5.80
2018-09-26T04:32:29.085Z,5.84
2018-09-26T04:34:56.329Z,5.89
2018-09-26T04:37:23.511Z,5.86
2018-09-26T04:39:50.697Z,5.85
2018-09-26T04:42:17.949Z,5.87
2018-09-26T04:44:45.145Z,5.80
2018-09-26T04:47:12.334Z,5.65
2018-09-26T04:49:39.616Z,5.58
2018-09-26T04:52:06.886Z,5.55
2018-09-26T04:54:34.180Z,5.65
2018-09-26T04:57:01.408Z,5.70
2018-09-26T04:59:28.625Z,5.68
2018-09-26T05:01:56.082Z,5.57
2018-09-26T05:04:23.287Z,5.52
2018-09-26T05:06:50.521Z,5.60
2018-09-26T05:09:17.744Z,5.60
2018-09-26T05:11:44.950Z,5.61
2018-09-26T05:14:12.214Z,5.61
2018-09-26T05:16:39.514Z,5.70
2018-09-26T05:19:06.841Z,5.72
2018-09-26T05:21:34.065Z,5.64
2018-09-26T05:24:01.263Z,5.59
2018-09-26T05:26:28.481Z,5.57
2018-09-26T05:28:55.786Z,5.50
2018-09-26T05:31:23.157Z,5.53
2018-09-26T05:33:50.407Z,5.56
2018-09-26T05:36:17.659Z,5.56
2018-09-26T05:38:44.854Z,5.57
2018-09-26T05:41:12.105Z,5.73
2018-09-26T05:43:39.502Z,5.75
2018-09-26T05:46:06.791Z,5.65
2018-09-26T05:48:34.426Z,5.59
2018-09-26T05:51:01.752Z,5.59
2018-09-26T05:53:29.454Z,5.35
2018-09-26T05:55:56.632Z,5.41
2018-09-26T05:58:23.893Z,5.41
2018-09-26T06:00:51.192Z,5.42
2018-09-26T06:03:18.391Z,5.29
2018-09-26T06:05:45.771Z,5.18
2018-09-26T06:08:12.973Z,5.06
2018-09-26T06:10:40.242Z,5.20
2018-09-26T06:13:07.672Z,5.30
2018-09-26T06:15:34.911Z,5.51
2018-09-26T06:18:02.211Z,5.71
2018-09-26T06:20:29.420Z,5.88
2018-09-26T06:22:56.703Z,6.05
2018-09-26T06:25:23.916Z,6.11
2018-09-26T06:27:51.227Z,6.33
2018-09-26T06:30:18.472Z,6.48
2018-09-26T06:32:45.695Z,6.73
2018-09-26T06:35:12.971Z,6.86
2018-09-26T06:37:40.199Z,7.08
2018-09-26T06:40:07.525Z,7.24
2018-09-26T06:42:34.812Z,7.45
2018-09-26T06:45:02.039Z,7.67
2018-09-26T06:47:29.356Z,8.06
2018-09-26T06:49:56.513Z,8.52
2018-09-26T06:52:23.754Z,8.97
2018-09-26T06:54:50.927Z,9.52
2018-09-26T06:57:18.235Z,10.16
2018-09-26T06:59:45.657Z,10.90
2018-09-26T07:02:12.938Z,11.61
2018-09-26T07:04:40.201Z,12.21
2018-09-26T07:07:07.397Z,12.63
2018-09-26T07:09:34.662Z,13.00
2018-09-26T07:12:01.980Z,13.83
2018-09-26T07:14:29.182Z,13.93
2018-09-26T07:16:56.347Z,13.85
2018-09-26T07:19:23.638Z,14.39
2018-09-26T07:21:50.891Z,14.23
2018-09-26T07:24:18.098Z,14.56
2018-09-26T07:26:45.367Z,15.37
2018-09-26T07:29:12.632Z,15.04
2018-09-26T07:31:39.839Z,15.49
2018-09-26T07:34:07.181Z,15.63
2018-09-26T07:36:34.402Z,15.81
2018-09-26T07:39:01.649Z,15.80
2018-09-26T07:41:28.853Z,16.24
2018-09-26T07:43:56.105Z,16.91
2018-09-26T07:46:23.297Z,17.40
2018-09-26T07:48:50.634Z,17.49
2018-09-26T07:51:17.867Z,18.10
2018-09-26T07:53:45.091Z,17.61
2018-09-26T07:56:12.293Z,16.89
2018-09-26T07:58:39.501Z,16.71
2018-09-26T08:01:06.755Z,16.07
2018-09-26T08:03:34.012Z,15.80
2018-09-26T08:06:01.306Z,15.87
2018-09-26T08:08:28.479Z,15.76
2018-09-26T08:10:55.754Z,15.75
2018-09-26T08:13:23.000Z,15.55
2018-09-26T08:15:50.271Z,15.18
2018-09-26T08:18:17.497Z,14.87
2018-09-26T08:20:44.745Z,14.46
2018-09-26T08:23:12.192Z,14.25
2018-09-26T08:25:39.477Z,14.12
2018-09-26T08:28:06.774Z,13.59
2018-09-26T08:30:34.112Z,13.55
2018-09-26T08:33:01.309Z,13.23
2018-09-26T08:35:28.547Z,12.89
2018-09-26T08:37:55.824Z,12.70
2018-09-26T08:40:23.362Z,12.88
2018-09-26T08:42:50.600Z,12.96
2018-09-26T08:45:17.886Z,13.04
2018-09-26T08:47:45.157Z,13.00
2018-09-26T08:50:12.408Z,12.99
2018-09-26T08:52:39.645Z,13.24
2018-09-26T08:55:06.895Z,13.09
2018-09-26T08:57:34.130Z,13.23
2018-09-26T09:00:01.429Z,13.34
2018-09-26T09:02:28.700Z,13.88
2018-09-26T09:04:55.965Z,14.39
2018-09-26T09:07:23.227Z,15.09
2018-09-26T09:09:50.473Z,16.13
2018-09-26T09:12:17.630Z,16.67
2018-09-26T09:14:45.136Z,16.63
2018-09-26T09:17:12.294Z,16.34
2018-09-26T09:19:39.515Z,16.21
2018-09-26T09:22:06.745Z,16.34
2018-09-26T09:24:33.980Z,16.68
2018-09-26T09:27:01.304Z,17.19
2018-09-26T09:29:28.748Z,17.71
2018-09-26T09:31:56.043Z,18.39
2018-09-26T09:34:23.306Z,18.51
2018-09-26T09:36:50.552Z,18.32
2018-09-26T09:39:17.788Z,18.12
2018-09-26T09:41:44.980Z,18.62
2018-09-26T09:44:12.206Z,19.11
2018-09-26T09:46:39.473Z,19.97
2018-09-26T09:49:06.880Z,20.15
2018-09-26T09:51:34.119Z,20.50
2018-09-26T09:54:01.351Z,20.38
2018-09-26T09:56:28.591Z,20.53
2018-09-26T09:58:55.831Z,20.57
2018-09-26T10:01:27.210Z,20.87
2018-09-26T10:03:55.247Z,21.29
2018-09-26T10:06:22.433Z,21.74
2018-09-26T10:08:49.900Z,22.09
2018-09-26T10:11:17.067Z,22.26
2018-09-26T10:13:44.583Z,22.59
2018-09-26T10:16:11.891Z,22.48
2018-09-26T10:18:39.191Z,22.16
2018-09-26T10:21:06.518Z,22.38
2018-09-26T10:23:33.756Z,22.69
2018-09-26T10:26:01.042Z,22.72
2018-09-26T10:28:28.341Z,22.87
2018-09-26T10:30:55.625Z,23.05
2018-09-26T10:33:22.856Z,23.04
2018-09-26T10:35:50.074Z,23.43
2018-09-26T10:38:17.435Z,23.49
2018-09-26T10:40:44.662Z,23.23
2018-09-26T10:43:12.005Z,23.51
2018-09-26T10:45:39.282Z,23.25
2018-09-26T10:48:06.546Z,22.35
2018-09-26T10:50:33.810Z,22.20
2018-09-26T10:53:01.046Z,22.74
2018-09-26T10:55:28.286Z,23.13
2018-09-26T10:57:55.447Z,23.51
2018-09-26T11:00:22.677Z,23.74
2018-09-26T11:02:49.899Z,23.66
2018-09-26T11:05:17.176Z,23.78
2018-09-26T11:07:44.384Z,23.80
2018-09-26T11:10:11.666Z,23.85
2018-09-26T11:12:38.976Z,23.98
2018-09-26T11:15:06.289Z,24.19
2018-09-26T11:17:33.498Z,23.59
2018-09-26T11:20:00.722Z,23.37
2018-09-26T11:22:27.966Z,23.43
2018-09-26T11:24:55.180Z,23.49
2018-09-26T11:27:22.388Z,23.78
2018-09-26T11:29:49.737Z,24.34
2018-09-26T11:32:17.031Z,24.27
2018-09-26T11:34:44.223Z,24.27
2018-09-26T11:37:11.471Z,24.01
2018-09-26T11:39:38.749Z,23.82
2018-09-26T11:42:06.023Z,23.54
2018-09-26T11:44:33.327Z,23.53
2018-09-26T11:47:00.529Z,23.64
2018-09-26T11:49:27.757Z,23.92
2018-09-26T11:51:55.015Z,23.52
2018-09-26T11:54:22.273Z,23.81
2018-09-26T11:56:49.490Z,23.61
2018-09-26T11:59:16.714Z,23.77
2018-09-26T12:01:43.942Z,24.34
2018-09-26T12:04:11.284Z,24.57
2018-09-26T12:06:38.531Z,24.78
2018-09-26T12:09:06.618Z,24.71
2018-09-26T12:11:33.826Z,24.16
2018-09-26T12:14:01.058Z,24.19
2018-09-26T12:16:28.299Z,24.15
2018-09-26T12:18:55.512Z,24.22
2018-09-26T12:21:30.444Z,24.16
2018-09-26T12:23:49.957Z,24.13
2018-09-26T12:26:17.162Z,24.15
2018-09-26T12:28:44.425Z,23.95
2018-09-26T12:31:11.689Z,24.06
2018-09-26T12:33:38.935Z,24.19
2018-09-26T12:36:06.957Z,24.00
2018-09-26T12:38:34.202Z,23.56
2018-09-26T12:41:01.540Z,23.73
2018-09-26T12:43:28.721Z,23.91
2018-09-26T12:45:55.975Z,23.93
2018-09-26T12:48:23.205Z,24.07
2018-09-26T12:50:50.403Z,23.83
2018-09-26T12:53:17.722Z,24.20
2018-09-26T12:55:44.921Z,25.05
2018-09-26T12:58:12.178Z,25.11
2018-09-26T13:00:39.460Z,25.17
2018-09-26T13:03:06.714Z,25.27
2018-09-26T13:05:33.969Z,26.11
2018-09-26T13:08:01.186Z,26.92
2018-09-26T13:10:28.477Z,27.26
2018-09-26T13:12:55.667Z,26.97
2018-09-26T13:15:22.905Z,27.30
2018-09-26T13:17:50.157Z,27.32
2018-09-26T13:20:17.459Z,26.89
2018-09-26T13:22:44.667Z,27.16
2018-09-26T13:25:11.941Z,27.16
2018-09-26T13:27:39.213Z,27.27
2018-09-26T13:30:06.693Z,27.29
2018-09-26T13:32:34.000Z,27.64
2018-09-26T13:35:01.263Z,27.52
2018-09-26T13:37:28.527Z,27.69
2018-09-26T13:39:55.819Z,27.47
2018-09-26T13:42:23.090Z,27.25
2018-09-26T13:44:50.269Z,27.22
2018-09-26T13:47:17.526Z,27.24
2018-09-26T13:49:44.811Z,27.09
2018-09-26T13:52:12.172Z,27.16
2018-09-26T13:54:39.361Z,27.12
2018-09-26T13:57:06.632Z,26.99
2018-09-26T13:59:33.839Z,26.69
2018-09-26T14:02:01.132Z,26.63
2018-09-26T14:04:28.388Z,26.51
2018-09-26T14:06:55.639Z,26.70
2018-09-26T14:09:22.867Z,26.89
2018-09-26T14:11:50.104Z,26.95
2018-09-26T14:14:17.336Z,26.65
2018-09-26T14:16:44.547Z,26.44
2018-09-26T14:19:11.801Z,26.40
2018-09-26T14:21:39.136Z,26.49
2018-09-26T14:24:06.819Z,26.57
2018-09-26T14:26:34.184Z,26.67
2018-09-26T14:29:01.442Z,26.61
2018-09-26T14:31:28.702Z,25.85
2018-09-26T14:33:56.485Z,25.73
2018-09-26T14:36:23.761Z,25.74
2018-09-26T14:38:51.034Z,25.77
2018-09-26T14:41:18.272Z,25.68
2018-09-26T14:43:45.460Z,25.52
2018-09-26T14:46:12.698Z,25.38
2018-09-26T14:48:39.922Z,25.13
2018-09-26T14:51:07.362Z,25.06
2018-09-26T14:53:34.632Z,25.19
2018-09-26T14:56:01.988Z,25.16
2018-09-26T14:58:29.330Z,25.22
2018-09-26T15:00:56.444Z,25.37
2018-09-26T15:03:23.710Z,25.55
2018-09-26T15:05:50.996Z,25.74
2018-09-26T15:08:18.276Z,25.94
2018-09-26T15:10:45.552Z,25.94
2018-09-26T15:13:12.766Z,26.02
2018-09-26T15:15:40.007Z,26.47
2018-09-26T15:18:07.192Z,26.66
2018-09-26T15:20:34.579Z,26.49
2018-09-26T15:23:01.894Z,26.48
2018-09-26T15:25:29.170Z,26.04
2018-09-26T15:27:56.514Z,25.79
2018-09-26T15:30:23.877Z,25.52
2018-09-26T15:32:51.042Z,25.03
2018-09-26T15:35:18.308Z,24.71
2018-09-26T15:37:45.521Z,24.49
2018-09-26T15:40:12.808Z,24.30
2018-09-26T15:42:40.038Z,24.07
2018-09-26T15:45:07.512Z,24.28
2018-09-26T15:47:34.689Z,24.49
2018-09-26T15:50:01.911Z,24.47
2018-09-26T15:52:29.136Z,24.27
2018-09-26T15:54:56.396Z,23.94
2018-09-26T15:57:23.606Z,23.88
2018-09-26T15:59:50.795Z,23.62
2018-09-26T16:02:18.059Z,23.48
2018-09-26T16:04:45.274Z,23.31
2018-09-26T16:07:12.524Z,23.38
2018-09-26T16:09:39.873Z,23.22
2018-09-26T16:12:07.167Z,23.06
2018-09-26T16:14:34.445Z,23.02
2018-09-26T16:17:01.814Z,22.80
2018-09-26T16:19:29.129Z,22.63
2018-09-26T16:21:56.681Z,22.49
2018-09-26T16:24:24.007Z,22.26
2018-09-26T16:26:51.136Z,22.00
2018-09-26T16:29:18.364Z,21.85
2018-09-26T16:31:45.628Z,21.62
2018-09-26T16:34:12.981Z,21.39
2018-09-26T16:36:40.143Z,21.21
2018-09-26T16:39:09.547Z,21.07
2018-09-26T16:41:36.737Z,21.03
2018-09-26T16:44:04.030Z,21.09
2018-09-26T16:46:31.238Z,21.07
2018-09-26T16:48:58.461Z,21.09
2018-09-26T16:51:25.690Z,20.98
2018-09-26T16:53:52.953Z,20.90
2018-09-26T16:56:20.171Z,20.72
2018-09-26T16:58:47.315Z,20.72
2018-09-26T17:01:14.507Z,20.60
2018-09-26T17:03:41.741Z,20.33
2018-09-26T17:06:09.044Z,20.21
2018-09-26T17:08:36.246Z,19.83
2018-09-26T17:11:03.494Z,19.62
2018-09-26T17:13:30.733Z,19.28
2018-09-26T17:15:57.898Z,18.90
2018-09-26T17:18:25.165Z,18.67
2018-09-26T17:20:52.361Z,18.47
2018-09-26T17:23:19.542Z,18.29
2018-09-26T17:25:46.776Z,18.02
2018-09-26T17:28:14.048Z,17.85
2018-09-26T17:30:41.310Z,17.76
2018-09-26T17:33:08.584Z,17.52
2018-09-26T17:35:35.821Z,17.37
2018-09-26T17:38:03.038Z,17.33
2018-09-26T17:40:30.293Z,17.12
2018-09-26T17:42:57.528Z,16.89
2018-09-26T17:45:24.836Z,16.78
2018-09-26T17:47:51.990Z,16.74
2018-09-26T17:50:19.247Z,16.67
2018-09-26T17:52:46.479Z,16.62
2018-09-26T17:55:13.752Z,16.50
2018-09-26T17:57:40.910Z,16.43
2018-09-26T18:00:08.236Z,16.37
2018-09-26T18:02:35.480Z,16.26
2018-09-26T18:05:02.765Z,16.19
2018-09-26T18:07:30.054Z,16.14
2018-09-26T18:09:57.283Z,16.05
2018-09-26T18:12:24.533Z,15.96
2018-09-26T18:14:51.719Z,15.81
2018-09-26T18:17:18.941Z,15.66
2018-09-26T18:19:46.176Z,15.60
2018-09-26T18:22:13.388Z,15.48
2018-09-26T18:24:40.647Z,15.37
2018-09-26T18:27:07.912Z,15.26
2018-09-26T18:29:35.543Z,15.21
2018-09-26T18:32:02.799Z,15.23
2018-09-26T18:34:30.032Z,15.18
2018-09-26T18:36:57.267Z,15.09
2018-09-26T18:39:24.553Z,14.99
2018-09-26T18:41:51.671Z,14.90
2018-09-26T18:44:18.992Z,14.85
2018-09-26T18:46:46.378Z,14.72
2018-09-26T18:49:13.587Z,14.57
2018-09-26T18:51:40.789Z,14.54
2018-09-26T18:54:08.021Z,14.49
2018-09-26T18:56:35.205Z,14.40
2018-09-26T18:59:02.557Z,14.33
2018-09-26T19:01:29.690Z,14.20
2018-09-26T19:03:57.150Z,14.22
2018-09-26T19:06:24.596Z,14.13
2018-09-26T19:08:51.800Z,14.04
2018-09-26T19:11:19.075Z,14.07
2018-09-26T19:13:46.308Z,13.97
2018-09-26T19:16:14.337Z,13.96
2018-09-26T19:18:41.629Z,13.92
2018-09-26T19:21:08.944Z,13.85
2018-09-26T19:23:36.087Z,13.81
2018-09-26T19:26:03.322Z,13.69
2018-09-26T19:28:31.013Z,13.67
2018-09-26T19:30:58.222Z,13.49
2018-09-26T19:33:25.450Z,13.40
2018-09-26T19:35:52.621Z,13.42
2018-09-26T19:38:19.829Z,13.36
2018-09-26T19:40:48.325Z,13.30
2018-09-26T19:43:15.512Z,13.11
2018-09-26T19:45:42.689Z,13.06
2018-09-26T19:48:10.005Z,13.04
2018-09-26T19:50:37.197Z,13.05
2018-09-26T19:53:04.616Z,13.00
2018-09-26T19:55:31.866Z,12.87
2018-09-26T19:57:59.114Z,12.76
2018-09-26T20:00:26.353Z,12.69
2018-09-26T20:02:53.545Z,12.65
2018-09-26T20:05:20.764Z,12.56
2018-09-26T20:07:47.925Z,12.61
2018-09-26T20:10:15.208Z,12.60
2018-09-26T20:12:42.456Z,12.56
2018-09-26T20:15:09.837Z,12.51
2018-09-26T20:17:37.038Z,12.38
2018-09-26T20:20:04.367Z,12.24
2018-09-26T20:22:31.562Z,12.26
2018-09-26T20:24:59.045Z,12.26
2018-09-26T20:27:26.386Z,12.20
2018-09-26T20:29:53.601Z,12.18
2018-09-26T20:32:20.881Z,12.06
2018-09-26T20:34:48.112Z,12.06
2018-09-26T20:37:15.358Z,12.04
2018-09-26T20:39:42.528Z,11.93
2018-09-26T20:42:09.758Z,11.91
2018-09-26T20:44:37.017Z,11.96
2018-09-26T20:47:04.286Z,11.86
2018-09-26T20:49:31.489Z,11.66
2018-09-26T20:51:58.760Z,11.59
2018-09-26T20:54:25.968Z,11.61
2018-09-26T20:56:53.238Z,11.59
2018-09-26T20:59:20.481Z,11.60
2018-09-26T21:01:47.662Z,11.58
2018-09-26T21:04:14.960Z,11.52
2018-09-26T21:06:42.155Z,11.58
2018-09-26T21:09:10.210Z,11.48
2018-09-26T21:11:37.549Z,11.53
2018-09-26T21:14:04.753Z,11.49
2018-09-26T21:16:32.004Z,11.42
2018-09-26T21:18:59.256Z,11.41
2018-09-26T21:21:26.524Z,11.44
2018-09-26T21:23:53.777Z,11.43
2018-09-26T21:26:21.004Z,11.34
2018-09-26T21:28:48.229Z,11.24
2018-09-26T21:31:15.505Z,11.04
2018-09-26T21:33:42.751Z,11.03
2018-09-26T21:36:10.186Z,11.00
2018-09-26T21:38:37.427Z,11.03
2018-09-26T21:41:04.638Z,10.92
2018-09-26T21:43:31.881Z,10.84
2018-09-26T21:45:59.134Z,10.91
2018-09-26T21:48:26.356Z,10.98
2018-09-26T21:50:53.603Z,10.95
2018-09-26T21:53:20.771Z,10.95
2018-09-26T21:55:48.012Z,10.85
2018-09-26T21:58:15.209Z,10.80
2018-09-26T22:00:48.079Z,10.79
2018-09-26T22:03:15.308Z,10.80
2018-09-26T22:05:42.506Z,10.79
2018-09-26T22:08:09.715Z,10.85
2018-09-26T22:10:36.936Z,10.80
2018-09-26T22:13:04.158Z,10.73
2018-09-26T22:15:31.381Z,10.71
2018-09-26T22:17:58.580Z,10.68
2018-09-26T22:20:25.817Z,10.73
2018-09-26T22:22:53.094Z,10.64
2018-09-26T22:25:20.257Z,10.68
2018-09-26T22:27:47.560Z,10.61
2018-09-26T22:30:14.760Z,10.43
2018-09-26T22:32:41.966Z,10.10
2018-09-26T22:35:09.207Z,10.06
2018-09-26T22:37:36.713Z,10.01
2018-09-26T22:40:03.995Z,10.14
2018-09-26T22:42:31.244Z,10.13
2018-09-26T22:44:58.519Z,10.13
2018-09-26T22:47:25.747Z,10.19
2018-09-26T22:49:53.019Z,10.17
2018-09-26T22:52:20.206Z,10.14
2018-09-26T22:54:47.403Z,10.04
2018-09-26T22:57:14.737Z,10.04
2018-09-26T22:59:41.910Z,9.96
2018-09-26T23:02:09.111Z,9.98
2018-09-26T23:04:36.347Z,9.88
2018-09-26T23:07:03.649Z,9.90
2018-09-26T23:09:30.809Z,9.81
2018-09-26T23:11:58.067Z,9.84
2018-09-26T23:14:25.289Z,9.82
2018-09-26T23:16:52.505Z,9.82
2018-09-26T23:19:19.658Z,9.80
2018-09-26T23:21:46.871Z,9.78
2018-09-26T23:24:14.116Z,9.71
2018-09-26T23:26:41.308Z,9.64
2018-09-26T23:29:08.502Z,9.67
2018-09-26T23:34:02.626Z,9.72
2018-09-26T23:36:29.840Z,9.68
2018-09-26T23:38:57.038Z,9.64
2018-09-26T23:41:24.236Z,9.68
2018-09-26T23:43:51.425Z,9.64
2018-09-26T23:46:18.662Z,9.55
2018-09-26T23:48:45.900Z,9.41
2018-09-26T23:51:13.124Z,9.46
2018-09-26T23:53:40.407Z,9.43
2018-09-26T23:56:07.655Z,9.44
2018-09-26T23:58:34.888Z,9.38
